createdAt,value
2023-02-03T00:02:23.880Z,3.28
2023-02-03T00:04:51.100Z,3.22
2023-02-03T00:07:19.656Z,2.80
2023-02-03T00:09:46.905Z,2.70
2023-02-03T00:12:14.506Z,4.25
2023-02-03T00:14:42.973Z,3.25
2023-02-03T00:17:10.197Z,2.95
2023-02-03T00:19:37.408Z,3.53
2023-02-03T00:22:04.782Z,3.30
2023-02-03T00:24:32.009Z,3.30
2023-02-03T00:26:59.206Z,4.60
2023-02-03T00:29:26.545Z,3.35
2023-02-03T00:31:54.585Z,3.30
2023-02-03T00:34:22.323Z,3.13
2023-02-03T00:36:49.649Z,3.03
2023-02-03T00:39:17.256Z,2.88
2023-02-03T00:41:44.580Z,3.42
2023-02-03T00:44:11.914Z,3.60
2023-02-03T00:46:39.684Z,3.30
2023-02-03T00:49:07.372Z,5.03
2023-02-03T00:51:35.910Z,4.10
2023-02-03T00:54:03.169Z,3.47
2023-02-03T00:56:30.419Z,3.33
2023-02-03T00:58:57.624Z,4.45
2023-02-03T01:01:24.967Z,3.00
2023-02-03T01:03:52.232Z,2.90
2023-02-03T01:06:20.889Z,4.65
2023-02-03T01:08:48.596Z,2.47
2023-02-03T01:11:17.696Z,3.40
2023-02-03T01:13:45.113Z,3.42
2023-02-03T01:16:13.119Z,2.65
2023-02-03T01:18:40.702Z,3.22
2023-02-03T01:21:08.056Z,2.97
2023-02-03T01:23:35.990Z,3.10
2023-02-03T01:26:04.605Z,3.15
2023-02-03T01:28:31.887Z,2.88
2023-02-03T01:31:04.785Z,4.45
2023-02-03T01:33:32.724Z,2.63
2023-02-03T01:36:01.174Z,2.58
2023-02-03T01:38:28.384Z,2.80
2023-02-03T01:40:55.702Z,2.35
2023-02-03T01:43:49.041Z,2.97
2023-02-03T01:46:23.338Z,2.63
2023-02-03T01:48:50.864Z,2.33
2023-02-03T01:51:18.317Z,1.90
2023-02-03T01:53:45.708Z,2.33
2023-02-03T01:56:12.987Z,2.72
2023-02-03T01:58:41.970Z,1.95
2023-02-03T02:01:09.241Z,1.70
2023-02-03T02:03:56.859Z,2.92
2023-02-03T02:06:24.142Z,2.10
2023-02-03T02:08:51.962Z,1.98
2023-02-03T02:11:21.368Z,3.42
2023-02-03T02:13:49.526Z,2.50
2023-02-03T02:16:35.016Z,2.15
2023-02-03T02:19:11.297Z,3.10
2023-02-03T02:21:38.489Z,2.88
2023-02-03T02:24:11.535Z,1.95
2023-02-03T02:26:41.577Z,4.05
2023-02-03T02:29:27.085Z,1.92
2023-02-03T02:32:11.229Z,1.80
2023-02-03T02:34:43.603Z,2.30
2023-02-03T02:37:11.319Z,2.67
2023-02-03T02:39:56.797Z,2.10
2023-02-03T02:42:29.880Z,1.90
2023-02-03T02:45:00.070Z,1.80
2023-02-03T02:47:28.721Z,2.05
2023-02-03T02:50:01.569Z,2.05
2023-02-03T02:52:31.030Z,1.92
2023-02-03T02:55:01.995Z,3.05
2023-02-03T02:57:29.775Z,1.70
2023-02-03T02:59:57.170Z,2.28
2023-02-03T03:02:32.659Z,2.20
2023-02-03T03:05:02.287Z,2.53
2023-02-03T03:07:30.292Z,2.15
2023-02-03T03:10:00.573Z,2.58
2023-02-03T03:12:30.627Z,1.88
2023-02-03T03:15:03.892Z,2.28
2023-02-03T03:17:32.870Z,1.90
2023-02-03T03:20:03.243Z,3.22
2023-02-03T03:22:34.322Z,2.95
2023-02-03T03:25:07.153Z,3.42
2023-02-03T03:27:39.865Z,3.67
2023-02-03T03:30:10.016Z,2.30
2023-02-03T03:32:37.649Z,2.33
2023-02-03T03:35:05.199Z,1.90
2023-02-03T03:37:37.584Z,1.98
2023-02-03T03:40:10.444Z,2.85
2023-02-03T03:42:51.038Z,2.05
2023-02-03T03:45:28.002Z,3.40
2023-02-03T03:48:05.006Z,2.10
2023-02-03T03:50:37.825Z,2.05
2023-02-03T03:53:06.062Z,2.55
2023-02-03T03:55:35.762Z,2.58
2023-02-03T03:58:05.652Z,1.80
2023-02-03T04:00:34.425Z,1.88
2023-02-03T04:03:24.763Z,1.80
2023-02-03T04:05:52.325Z,2.10
2023-02-03T04:08:19.674Z,1.90
2023-02-03T04:10:46.932Z,3.47
2023-02-03T04:13:15.944Z,2.22
2023-02-03T04:15:43.191Z,2.67
2023-02-03T04:18:12.697Z,2.83
2023-02-03T04:20:39.963Z,2.80
2023-02-03T04:23:07.609Z,2.17
2023-02-03T04:25:34.888Z,2.63
2023-02-03T04:28:02.817Z,3.10
2023-02-03T04:30:30.289Z,3.13
2023-02-03T04:32:57.723Z,2.13
2023-02-03T04:35:24.936Z,2.70
2023-02-03T04:37:52.127Z,3.00
2023-02-03T04:40:19.374Z,2.80
2023-02-03T04:42:46.671Z,2.40
2023-02-03T04:45:14.064Z,3.15
2023-02-03T04:47:41.315Z,5.10
2023-02-03T04:50:08.775Z,2.45
2023-02-03T04:52:36.016Z,2.35
2023-02-03T04:55:04.027Z,3.33
2023-02-03T04:57:31.453Z,2.33
2023-02-03T04:59:58.624Z,3.65
2023-02-03T05:02:25.850Z,2.50
2023-02-03T05:04:53.139Z,2.08
2023-02-03T05:07:20.779Z,2.40
2023-02-03T05:09:48.020Z,2.50
2023-02-03T05:12:15.297Z,2.28
2023-02-03T05:14:42.508Z,2.22
2023-02-03T05:17:09.699Z,2.83
2023-02-03T05:19:36.967Z,2.05
2023-02-03T05:22:04.204Z,6.05
2023-02-03T05:24:31.424Z,2.38
2023-02-03T05:26:58.612Z,3.50
2023-02-03T05:29:25.845Z,4.38
2023-02-03T05:31:53.226Z,2.53
2023-02-03T05:34:20.459Z,2.35
2023-02-03T05:36:47.659Z,3.25
2023-02-03T05:39:14.875Z,2.22
2023-02-03T05:41:55.902Z,4.35
2023-02-03T05:44:25.600Z,2.70
2023-02-03T05:46:53.910Z,2.15
2023-02-03T05:49:23.154Z,3.53
2023-02-03T05:54:17.533Z,3.97
2023-02-03T05:56:44.750Z,3.53
2023-02-03T05:59:12.144Z,3.25
2023-02-03T06:01:39.530Z,2.38
2023-02-03T06:04:07.025Z,2.60
2023-02-03T06:06:34.561Z,2.45
2023-02-03T06:09:02.985Z,3.10
2023-02-03T06:11:30.291Z,2.47
2023-02-03T06:13:58.683Z,3.08
2023-02-03T06:16:26.842Z,2.63
2023-02-03T06:18:54.728Z,2.83
2023-02-03T06:21:22.470Z,2.67
2023-02-03T06:23:49.730Z,2.58
2023-02-03T06:26:17.067Z,2.33
2023-02-03T06:28:44.404Z,2.50
2023-02-03T06:31:11.775Z,3.75
2023-02-03T06:33:39.064Z,2.80
2023-02-03T06:36:06.452Z,2.90
2023-02-03T06:38:33.689Z,3.33
2023-02-03T06:41:01.027Z,2.60
2023-02-03T06:43:28.261Z,4.38
2023-02-03T06:45:55.578Z,3.60
2023-02-03T06:48:23.830Z,4.13
2023-02-03T06:50:51.051Z,4.05
2023-02-03T06:53:18.446Z,3.78
2023-02-03T06:55:46.493Z,2.97
2023-02-03T06:58:13.779Z,3.03
2023-02-03T07:00:40.984Z,3.78
2023-02-03T07:03:08.189Z,4.50
2023-02-03T07:05:36.827Z,3.28
2023-02-03T07:08:04.088Z,4.30
2023-02-03T07:10:31.445Z,4.43
2023-02-03T07:13:02.875Z,3.95
2023-02-03T07:15:30.236Z,4.30
2023-02-03T07:17:57.677Z,2.88
2023-02-03T07:20:25.250Z,3.42
2023-02-03T07:22:56.708Z,3.65
2023-02-03T07:25:24.674Z,2.97
2023-02-03T07:27:51.965Z,3.85
2023-02-03T07:30:19.274Z,3.72
2023-02-03T07:32:50.475Z,3.17
2023-02-03T07:35:17.796Z,2.72
2023-02-03T07:37:45.163Z,2.63
2023-02-03T07:40:13.202Z,4.05
2023-02-03T07:42:50.126Z,2.45
2023-02-03T07:45:18.238Z,4.88
2023-02-03T07:47:45.560Z,3.72
2023-02-03T07:50:12.956Z,4.13
2023-02-03T07:52:40.606Z,2.55
2023-02-03T07:55:08.052Z,3.33
2023-02-03T07:57:35.482Z,2.72
2023-02-03T08:00:02.904Z,3.03
2023-02-03T08:02:39.605Z,3.53
2023-02-03T08:05:07.073Z,2.55
2023-02-03T08:07:34.653Z,2.55
2023-02-03T08:10:01.979Z,2.67
2023-02-03T08:12:29.280Z,3.10
2023-02-03T08:14:56.839Z,3.42
2023-02-03T08:17:24.126Z,2.92
2023-02-03T08:19:51.381Z,4.35
2023-02-03T08:22:19.309Z,4.47
2023-02-03T08:24:47.547Z,2.50
2023-02-03T08:27:15.435Z,3.38
2023-02-03T08:29:43.541Z,4.20
2023-02-03T08:32:11.740Z,3.38
2023-02-03T08:34:39.286Z,3.45
2023-02-03T08:37:06.623Z,3.35
2023-02-03T08:39:34.458Z,3.85
2023-02-03T08:42:03.929Z,4.10
2023-02-03T08:44:31.923Z,3.65
2023-02-03T08:46:59.379Z,3.58
2023-02-03T08:49:27.713Z,3.45
2023-02-03T08:51:55.290Z,3.65
2023-02-03T08:54:22.567Z,2.75
2023-02-03T08:56:49.902Z,3.10
2023-02-03T08:59:17.158Z,4.60
2023-02-03T09:01:48.320Z,4.22
2023-02-03T09:04:19.310Z,3.28
2023-02-03T09:06:50.466Z,3.53
2023-02-03T09:09:17.938Z,4.07
2023-02-03T09:11:45.184Z,4.32
2023-02-03T09:14:12.417Z,2.80
2023-02-03T09:16:40.064Z,4.93
2023-02-03T09:19:07.838Z,2.65
2023-02-03T09:21:37.120Z,3.22
2023-02-03T09:24:10.600Z,2.92
2023-02-03T09:26:37.871Z,3.25
2023-02-03T09:29:05.264Z,2.75
2023-02-03T09:31:32.594Z,3.17
2023-02-03T09:34:00.599Z,4.05
2023-02-03T09:36:30.324Z,2.97
2023-02-03T09:38:58.295Z,2.95
2023-02-03T09:41:44.229Z,2.97
2023-02-03T09:44:11.642Z,3.05
2023-02-03T09:46:41.181Z,3.42
2023-02-03T09:49:28.665Z,2.47
2023-02-03T09:52:04.720Z,3.55
2023-02-03T09:54:38.803Z,2.83
2023-02-03T09:57:09.873Z,2.22
2023-02-03T09:59:37.336Z,2.60
2023-02-03T10:02:18.780Z,2.47
2023-02-03T10:05:00.462Z,3.00
2023-02-03T10:07:51.206Z,3.00
2023-02-03T10:10:37.485Z,2.72
2023-02-03T10:13:07.779Z,4.85
2023-02-03T10:15:35.010Z,3.40
2023-02-03T10:18:14.558Z,3.80
2023-02-03T10:20:44.461Z,2.50
2023-02-03T10:23:19.400Z,2.78
2023-02-03T10:25:57.114Z,3.45
2023-02-03T10:28:27.273Z,2.30
2023-02-03T10:30:59.188Z,2.97
2023-02-03T10:33:27.561Z,2.90
2023-02-03T10:35:55.259Z,2.65
2023-02-03T10:38:33.598Z,2.40
2023-02-03T10:41:01.031Z,2.80
2023-02-03T10:43:48.295Z,2.67
2023-02-03T10:46:16.101Z,2.58
2023-02-03T10:48:43.482Z,2.20
2023-02-03T10:51:20.167Z,3.53
2023-02-03T10:53:47.619Z,2.90
2023-02-03T10:56:18.012Z,3.75
2023-02-03T10:58:49.885Z,3.35
2023-02-03T11:01:18.867Z,3.00
2023-02-03T11:04:03.837Z,3.95
2023-02-03T11:06:32.083Z,2.97
2023-02-03T11:08:59.808Z,2.50
2023-02-03T11:11:28.948Z,3.15
2023-02-03T11:13:57.795Z,3.15
2023-02-03T11:16:25.199Z,2.78
2023-02-03T11:18:53.936Z,3.50
2023-02-03T11:21:30.528Z,3.10
2023-02-03T11:24:03.753Z,2.60
2023-02-03T11:26:40.627Z,2.58
2023-02-03T11:29:15.283Z,2.95
2023-02-03T11:31:47.929Z,3.00
2023-02-03T11:34:17.220Z,3.72
2023-02-03T11:36:44.557Z,3.92
2023-02-03T11:39:23.970Z,2.22
2023-02-03T11:41:51.247Z,3.25
2023-02-03T11:44:23.144Z,3.05
2023-02-03T11:46:56.399Z,2.60
2023-02-03T11:49:42.511Z,2.92
2023-02-03T11:52:48.181Z,3.03
2023-02-03T11:55:22.088Z,3.15
2023-02-03T11:58:00.204Z,2.83
2023-02-03T12:00:50.485Z,2.92
2023-02-03T12:03:27.160Z,2.65
2023-02-03T12:06:12.241Z,4.15
2023-02-03T12:08:42.588Z,3.08
2023-02-03T12:11:28.454Z,3.55
2023-02-03T12:14:16.889Z,2.47
2023-02-03T12:16:55.780Z,3.88
2023-02-03T12:19:23.013Z,2.85
2023-02-03T12:21:52.161Z,3.55
2023-02-03T12:24:33.162Z,2.78
2023-02-03T12:27:18.640Z,3.05
2023-02-03T12:29:50.076Z,5.00
2023-02-03T12:32:17.300Z,2.50
2023-02-03T12:34:47.548Z,3.40
2023-02-03T12:37:22.649Z,2.85
2023-02-03T12:40:00.506Z,2.65
2023-02-03T12:42:33.758Z,4.22
2023-02-03T12:45:04.446Z,3.72
2023-02-03T12:47:31.816Z,2.30
2023-02-03T12:50:01.393Z,3.20
2023-02-03T12:52:28.597Z,5.07
2023-02-03T12:55:01.661Z,4.20
2023-02-03T12:57:37.612Z,4.15
2023-02-03T13:00:05.201Z,2.70
2023-02-03T13:02:35.637Z,3.00
2023-02-03T13:05:07.102Z,2.90
2023-02-03T13:07:38.259Z,2.78
2023-02-03T13:10:13.391Z,3.88
2023-02-03T13:12:42.718Z,4.13
2023-02-03T13:17:56.210Z,3.47
2023-02-03T13:20:25.733Z,4.63
2023-02-03T13:22:53.453Z,3.55
2023-02-03T13:25:20.727Z,2.97
2023-02-03T13:27:59.276Z,3.58
2023-02-03T13:30:39.887Z,3.53
2023-02-03T13:33:22.587Z,2.72
2023-02-03T13:35:50.044Z,3.72
2023-02-03T13:38:17.321Z,4.60
2023-02-03T13:41:00.377Z,3.20
2023-02-03T13:43:38.641Z,4.15
2023-02-03T13:46:09.328Z,3.50
2023-02-03T13:48:37.515Z,3.45
2023-02-03T13:51:16.232Z,3.63
2023-02-03T13:53:46.913Z,3.47
2023-02-03T13:56:28.677Z,3.30
2023-02-03T13:59:00.470Z,3.40
2023-02-03T14:01:27.757Z,4.05
2023-02-03T14:03:55.356Z,4.80
2023-02-03T14:06:37.703Z,3.60
2023-02-03T14:09:25.260Z,3.47
2023-02-03T14:11:53.288Z,4.32
2023-02-03T14:14:20.765Z,3.55
2023-02-03T14:16:54.802Z,3.38
2023-02-03T14:19:22.327Z,4.18
2023-02-03T14:21:58.725Z,3.05
2023-02-03T14:24:37.493Z,4.18
2023-02-03T14:27:06.015Z,3.15
2023-02-03T14:29:35.173Z,3.05
2023-02-03T14:34:35.634Z,4.35
2023-02-03T14:37:11.987Z,3.45
2023-02-03T14:39:50.338Z,3.38
2023-02-03T14:42:27.795Z,4.20
2023-02-03T14:44:55.101Z,3.50
2023-02-03T14:47:28.305Z,3.65
2023-02-03T14:49:55.573Z,4.25
2023-02-03T14:52:22.772Z,3.50
2023-02-03T14:54:53.013Z,3.78
2023-02-03T14:57:38.792Z,3.50
2023-02-03T15:00:27.468Z,4.05
2023-02-03T15:03:09.824Z,4.80
2023-02-03T15:05:44.297Z,3.60
2023-02-03T15:08:30.215Z,3.78
2023-02-03T15:10:57.548Z,5.10
2023-02-03T15:13:28.872Z,4.32
2023-02-03T15:15:57.347Z,4.72
2023-02-03T15:18:32.288Z,4.40
2023-02-03T15:20:59.960Z,5.22
2023-02-03T15:23:28.767Z,4.25
2023-02-03T15:25:56.094Z,4.10
2023-02-03T15:28:24.284Z,5.38
2023-02-03T15:30:55.632Z,4.50
2023-02-03T15:33:23.703Z,4.25
2023-02-03T15:35:54.727Z,4.82
2023-02-03T15:38:26.252Z,3.40
2023-02-03T15:40:58.975Z,2.83
2023-02-03T15:43:35.305Z,3.50
2023-02-03T15:46:24.172Z,4.43
2023-02-03T15:48:54.550Z,3.58
2023-02-03T15:51:31.669Z,5.47
2023-02-03T15:54:04.040Z,4.93
2023-02-03T15:56:41.018Z,3.83
2023-02-03T15:59:22.155Z,3.67
2023-02-03T16:01:49.490Z,3.47
2023-02-03T16:04:17.029Z,4.00
2023-02-03T16:06:47.307Z,4.57
2023-02-03T16:09:33.236Z,4.30
2023-02-03T16:12:06.929Z,4.25
2023-02-03T16:14:35.832Z,4.28
2023-02-03T16:17:06.012Z,4.47
2023-02-03T16:19:38.027Z,5.95
2023-02-03T16:22:05.472Z,5.38
2023-02-03T16:24:42.547Z,3.97
2023-02-03T16:27:28.424Z,4.10
2023-02-03T16:30:34.720Z,4.53
2023-02-03T16:33:30.332Z,8.30
2023-02-03T16:36:17.069Z,8.20
2023-02-03T16:39:06.769Z,10.10
2023-02-03T16:41:52.437Z,8.48
2023-02-03T16:44:38.315Z,10.80
2023-02-03T16:47:35.720Z,8.90
2023-02-03T16:50:32.823Z,5.80
2023-02-03T16:53:04.754Z,7.72
2023-02-03T16:55:32.204Z,5.25
2023-02-03T16:57:59.568Z,5.35
2023-02-03T17:00:26.876Z,6.57
2023-02-03T17:02:54.177Z,7.55
2023-02-03T17:05:21.625Z,5.75
2023-02-03T17:07:50.355Z,4.40
2023-02-03T17:10:17.673Z,5.60
2023-02-03T17:12:45.022Z,5.10
2023-02-03T17:15:12.346Z,5.90
2023-02-03T17:17:39.599Z,8.07
2023-02-03T17:20:07.179Z,7.45
2023-02-03T17:22:35.013Z,4.63
2023-02-03T17:25:02.321Z,4.55
2023-02-03T17:27:29.557Z,8.65
2023-02-03T17:29:56.839Z,8.80
2023-02-03T17:32:24.397Z,6.40
2023-02-03T17:34:51.713Z,9.05
2023-02-03T17:37:19.029Z,5.90
2023-02-03T17:53:33.145Z,8.57
2023-02-03T17:56:05.686Z,7.53
2023-02-03T17:58:32.959Z,6.40
2023-02-03T18:01:00.205Z,7.30
2023-02-03T18:03:27.664Z,7.55
2023-02-03T18:05:54.928Z,7.30
2023-02-03T18:08:25.568Z,7.13
2023-02-03T18:10:52.836Z,7.65
2023-02-03T18:13:23.353Z,5.15
2023-02-03T18:15:50.801Z,6.35
2023-02-03T18:18:18.217Z,5.18
2023-02-03T18:20:54.365Z,6.53
2023-02-03T18:23:21.852Z,5.82
2023-02-03T18:25:52.782Z,7.15
2023-02-03T18:28:20.195Z,5.47
2023-02-03T18:30:47.568Z,5.97
2023-02-03T18:33:15.292Z,5.97
2023-02-03T18:35:42.674Z,6.15
2023-02-03T18:38:10.362Z,5.72
2023-02-03T18:40:38.716Z,4.53
2023-02-03T18:43:06.709Z,5.27
2023-02-03T18:45:37.335Z,5.82
2023-02-03T18:48:04.709Z,4.30
2023-02-03T18:50:32.472Z,5.50
2023-02-03T18:52:59.925Z,6.57
2023-02-03T18:55:27.257Z,7.65
2023-02-03T18:57:54.668Z,9.48
2023-02-03T19:00:22.030Z,8.02
2023-02-03T19:02:50.188Z,7.20
2023-02-03T19:05:17.646Z,7.97
2023-02-03T19:07:45.096Z,5.68
2023-02-03T19:10:12.651Z,6.50
2023-02-03T19:12:40.115Z,9.27
2023-02-03T19:15:09.203Z,6.00
2023-02-03T19:17:38.167Z,7.28
2023-02-03T19:20:06.448Z,8.45
2023-02-03T19:22:34.205Z,7.68
2023-02-03T19:25:01.589Z,7.47
2023-02-03T19:27:28.892Z,5.75
2023-02-03T19:29:56.149Z,7.75
2023-02-03T19:32:23.601Z,7.43
2023-02-03T19:34:50.917Z,6.90
2023-02-03T19:37:18.224Z,5.07
2023-02-03T19:39:50.305Z,8.38
2023-02-03T19:42:18.073Z,5.53
2023-02-03T19:44:45.337Z,5.93
2023-02-03T19:47:12.762Z,4.97
2023-02-03T19:49:40.111Z,4.18
2023-02-03T19:52:09.043Z,7.30
2023-02-03T19:54:36.672Z,6.22
2023-02-03T19:57:03.964Z,5.50
2023-02-03T19:59:31.409Z,4.28
2023-02-03T20:02:04.039Z,4.63
2023-02-03T20:04:36.891Z,4.53
2023-02-03T20:07:04.183Z,7.35
2023-02-03T20:09:31.429Z,6.10
2023-02-03T20:11:59.630Z,5.93
2023-02-03T20:14:27.159Z,6.85
2023-02-03T20:16:54.529Z,4.50
2023-02-03T20:19:21.916Z,6.55
2023-02-03T20:21:49.430Z,5.45
2023-02-03T20:24:16.923Z,5.32
2023-02-03T20:26:44.190Z,6.03
2023-02-03T20:29:11.489Z,4.53
2023-02-03T20:31:39.009Z,3.88
2023-02-03T20:34:07.231Z,3.30
2023-02-03T20:36:34.694Z,4.93
2023-02-03T20:39:02.604Z,5.68
2023-02-03T20:41:32.033Z,3.67
2023-02-03T20:44:00.289Z,8.68
2023-02-03T20:46:28.010Z,16.95
2023-02-03T20:48:56.231Z,6.70
2023-02-03T20:51:24.765Z,6.43
2023-02-03T20:53:52.613Z,7.78
2023-02-03T20:56:21.815Z,4.90
2023-02-03T20:58:49.471Z,7.28
2023-02-03T21:01:21.517Z,8.25
2023-02-03T21:04:07.696Z,9.10
2023-02-03T21:06:37.433Z,5.97
2023-02-03T21:09:14.185Z,4.88
2023-02-03T21:11:42.845Z,4.97
2023-02-03T21:14:21.314Z,3.95
2023-02-03T21:16:49.093Z,3.63
2023-02-03T21:19:43.098Z,5.20
2023-02-03T21:22:17.975Z,3.58
2023-02-03T21:24:50.281Z,5.63
2023-02-03T21:27:28.816Z,3.95
2023-02-03T21:29:57.594Z,3.40
2023-02-03T21:32:26.052Z,3.30
2023-02-03T21:34:53.390Z,5.20
2023-02-03T21:37:37.204Z,3.40
2023-02-03T21:40:15.707Z,4.13
2023-02-03T21:42:43.351Z,4.32
2023-02-03T21:45:32.858Z,3.83
2023-02-03T21:48:01.635Z,3.58
2023-02-03T21:50:29.968Z,3.83
2023-02-03T21:52:59.477Z,3.78
2023-02-03T21:55:27.171Z,3.45
2023-02-03T21:57:55.366Z,3.95
2023-02-03T22:00:42.819Z,5.75
2023-02-03T22:03:19.568Z,5.78
2023-02-03T22:05:47.463Z,5.10
2023-02-03T22:08:21.572Z,5.60
2023-02-03T22:10:49.206Z,4.05
2023-02-03T22:13:16.799Z,6.97
2023-02-03T22:15:45.324Z,5.47
2023-02-03T22:20:40.968Z,6.32
2023-02-03T22:23:08.263Z,9.80
2023-02-03T22:25:35.677Z,7.30
2023-02-03T22:28:04.104Z,6.55
2023-02-03T22:30:32.448Z,7.03
2023-02-03T22:33:02.098Z,5.13
2023-02-03T22:35:30.438Z,5.50
2023-02-03T22:37:57.753Z,5.77
2023-02-03T22:40:25.370Z,6.53
2023-02-03T22:42:53.043Z,5.80
2023-02-03T22:45:21.525Z,6.55
2023-02-03T22:47:48.903Z,5.90
2023-02-03T22:50:17.478Z,5.82
2023-02-03T22:52:47.739Z,4.88
2023-02-03T22:55:15.017Z,5.85
2023-02-03T22:57:42.432Z,5.30
2023-02-03T23:00:13.458Z,5.75
2023-02-03T23:02:41.142Z,4.75
2023-02-03T23:05:08.994Z,5.47
2023-02-03T23:07:37.355Z,4.30
2023-02-03T23:10:05.402Z,4.33
2023-02-03T23:12:32.750Z,5.53
2023-02-03T23:15:00.074Z,5.43
2023-02-03T23:17:27.376Z,6.00
2023-02-03T23:19:54.760Z,5.82
2023-02-03T23:22:22.130Z,4.68
2023-02-03T23:24:49.502Z,4.88
2023-02-03T23:27:16.781Z,6.93
2023-02-03T23:29:44.082Z,6.65
2023-02-03T23:32:11.400Z,5.72
2023-02-03T23:34:57.404Z,4.85
2023-02-03T23:38:01.544Z,5.25
2023-02-03T23:40:29.397Z,6.57
2023-02-03T23:42:56.937Z,5.60
2023-02-03T23:45:24.128Z,6.28
2023-02-03T23:47:51.364Z,5.50
2023-02-03T23:50:21.744Z,4.07
2023-02-03T23:52:49.053Z,5.95
2023-02-03T23:55:18.334Z,4.45
2023-02-03T23:57:45.939Z,6.47
